createdAt,value
2022-08-26T00:01:39.377Z,19.38
2022-08-26T00:04:05.943Z,19.37
2022-08-26T00:06:33.597Z,19.36
2022-08-26T00:09:00.184Z,19.35
2022-08-26T00:11:27.219Z,19.30
2022-08-26T00:13:55.918Z,19.27
2022-08-26T00:16:28.118Z,19.28
2022-08-26T00:18:54.996Z,19.22
2022-08-26T00:21:21.920Z,19.18
2022-08-26T00:23:49.975Z,19.21
2022-08-26T00:26:16.410Z,19.14
2022-08-26T00:28:42.953Z,19.13
2022-08-26T00:31:11.065Z,19.14
2022-08-26T00:33:38.527Z,19.11
2022-08-26T00:36:05.907Z,19.08
2022-08-26T00:38:32.518Z,19.03
2022-08-26T00:40:58.983Z,19.03
2022-08-26T00:43:26.690Z,18.99
2022-08-26T00:46:11.117Z,18.93
2022-08-26T00:48:39.879Z,18.89
2022-08-26T00:51:18.201Z,18.85
2022-08-26T00:53:51.938Z,18.86
2022-08-26T00:56:25.988Z,18.85
2022-08-26T00:58:56.291Z,18.80
2022-08-26T01:01:23.112Z,18.80
2022-08-26T01:03:49.845Z,18.76
2022-08-26T01:06:16.890Z,18.68
2022-08-26T01:08:43.403Z,18.65
2022-08-26T01:11:12.347Z,18.67
2022-08-26T01:13:39.751Z,18.66
2022-08-26T01:16:10.620Z,18.65
2022-08-26T01:18:40.743Z,18.63
2022-08-26T01:21:16.558Z,18.59
2022-08-26T01:23:48.219Z,18.58
2022-08-26T01:26:25.212Z,18.58
2022-08-26T01:28:56.625Z,18.58
2022-08-26T01:31:26.724Z,18.58
2022-08-26T01:34:02.263Z,18.58
2022-08-26T01:36:29.463Z,18.58
2022-08-26T01:38:55.923Z,18.58
2022-08-26T01:41:27.458Z,18.59
2022-08-26T01:43:57.179Z,18.59
2022-08-26T01:46:28.817Z,18.54
2022-08-26T01:48:58.768Z,18.49
2022-08-26T01:51:27.686Z,18.50
2022-08-26T01:53:54.765Z,18.48
2022-08-26T01:56:23.626Z,18.35
2022-08-26T01:58:59.686Z,18.35
2022-08-26T02:01:29.198Z,18.36
2022-08-26T02:04:05.466Z,18.34
2022-08-26T02:06:33.052Z,18.37
2022-08-26T02:09:02.976Z,18.36
2022-08-26T02:11:30.511Z,18.36
2022-08-26T02:14:08.587Z,18.34
2022-08-26T02:16:40.129Z,18.31
2022-08-26T02:19:16.964Z,18.31
2022-08-26T02:21:51.286Z,18.27
2022-08-26T02:24:28.676Z,18.28
2022-08-26T02:26:57.585Z,18.30
2022-08-26T02:29:32.997Z,18.32
2022-08-26T02:31:59.499Z,18.31
2022-08-26T02:34:31.060Z,18.26
2022-08-26T02:37:03.826Z,18.25
2022-08-26T02:39:31.899Z,18.22
2022-08-26T02:41:59.146Z,18.19
2022-08-26T02:44:27.248Z,18.18
2022-08-26T02:46:54.601Z,18.18
2022-08-26T02:49:22.256Z,18.19
2022-08-26T02:51:49.507Z,18.16
2022-08-26T02:54:18.106Z,18.12
2022-08-26T02:56:45.480Z,18.13
2022-08-26T02:59:15.334Z,18.10
2022-08-26T03:01:42.539Z,18.07
2022-08-26T03:04:11.740Z,18.04
2022-08-26T03:06:39.293Z,18.04
2022-08-26T03:09:08.589Z,18.04
2022-08-26T03:11:35.647Z,18.05
2022-08-26T03:14:03.812Z,18.02
2022-08-26T03:16:37.622Z,18.02
2022-08-26T03:19:06.886Z,18.02
2022-08-26T03:21:35.636Z,17.99
2022-08-26T03:24:03.582Z,17.94
2022-08-26T03:26:30.395Z,17.95
2022-08-26T03:29:15.482Z,17.93
2022-08-26T03:31:43.297Z,17.90
2022-08-26T03:34:09.759Z,17.93
2022-08-26T03:36:37.755Z,17.94
2022-08-26T03:39:04.433Z,17.89
2022-08-26T03:41:32.633Z,17.87
2022-08-26T03:44:01.711Z,17.82
2022-08-26T03:46:28.705Z,17.79
2022-08-26T03:48:55.217Z,17.79
2022-08-26T03:51:21.699Z,17.77
2022-08-26T03:53:48.336Z,17.75
2022-08-26T03:56:15.190Z,17.75
2022-08-26T03:58:42.902Z,17.69
2022-08-26T04:01:09.634Z,17.67
2022-08-26T04:03:54.502Z,17.69
2022-08-26T04:06:21.003Z,17.62
2022-08-26T04:08:48.303Z,17.61
2022-08-26T04:11:23.269Z,17.58
2022-08-26T04:13:49.986Z,17.58
2022-08-26T04:16:17.646Z,17.58
2022-08-26T04:18:46.633Z,17.52
2022-08-26T04:21:15.371Z,17.48
2022-08-26T04:23:47.587Z,17.49
2022-08-26T04:26:15.147Z,17.48
2022-08-26T04:28:41.723Z,17.53
2022-08-26T04:31:12.208Z,17.49
2022-08-26T04:33:41.649Z,17.52
2022-08-26T04:36:08.516Z,17.48
2022-08-26T04:38:35.492Z,17.51
2022-08-26T04:41:03.315Z,17.53
2022-08-26T04:43:32.015Z,17.54
2022-08-26T04:46:01.238Z,17.58
2022-08-26T04:48:32.724Z,17.60
2022-08-26T04:51:03.042Z,17.64
2022-08-26T04:53:31.898Z,17.73
2022-08-26T04:55:58.358Z,17.89
2022-08-26T04:58:25.628Z,17.98
2022-08-26T05:00:53.829Z,18.09
2022-08-26T05:03:20.988Z,18.25
2022-08-26T05:05:49.988Z,18.45
2022-08-26T05:08:18.571Z,18.68
2022-08-26T05:10:49.482Z,18.94
2022-08-26T05:13:18.751Z,19.22
2022-08-26T05:15:48.043Z,19.49
2022-08-26T05:18:21.248Z,19.80
2022-08-26T05:20:54.541Z,20.06
2022-08-26T05:23:22.891Z,20.36
2022-08-26T05:25:53.592Z,20.61
2022-08-26T05:28:22.935Z,20.90
2022-08-26T05:30:50.319Z,21.18
2022-08-26T05:33:17.579Z,21.46
2022-08-26T05:35:45.199Z,21.72
2022-08-26T05:38:15.586Z,22.03
2022-08-26T05:40:44.993Z,22.36
2022-08-26T05:43:13.389Z,22.58
2022-08-26T05:45:46.215Z,22.89
2022-08-26T05:48:14.718Z,23.22
2022-08-26T05:50:48.690Z,23.48
2022-08-26T05:53:20.166Z,23.66
2022-08-26T05:55:49.553Z,23.97
2022-08-26T05:58:20.133Z,24.26
2022-08-26T06:00:56.694Z,24.61
2022-08-26T06:03:23.153Z,24.87
2022-08-26T06:05:49.629Z,25.09
2022-08-26T06:08:16.399Z,25.09
2022-08-26T06:10:59.847Z,25.06
2022-08-26T06:13:27.727Z,25.32
2022-08-26T06:15:59.489Z,25.57
2022-08-26T06:18:32.637Z,25.89
2022-08-26T06:20:59.785Z,26.16
2022-08-26T06:23:47.651Z,26.43
2022-08-26T06:26:16.083Z,26.78
2022-08-26T06:28:45.494Z,27.05
2022-08-26T06:31:13.060Z,27.25
2022-08-26T06:33:39.720Z,27.42
2022-08-26T06:36:06.847Z,27.65
2022-08-26T06:38:33.445Z,27.65
2022-08-26T06:41:00.900Z,27.91
2022-08-26T06:43:29.554Z,28.11
2022-08-26T06:46:04.746Z,28.35
2022-08-26T06:48:31.916Z,28.04
2022-08-26T06:51:22.313Z,27.97
2022-08-26T06:53:52.341Z,28.52
2022-08-26T06:56:21.941Z,28.70
2022-08-26T06:58:48.447Z,28.71
2022-08-26T07:01:27.254Z,28.94
2022-08-26T07:03:57.113Z,29.13
2022-08-26T07:06:25.254Z,29.40
2022-08-26T07:08:54.145Z,29.37
2022-08-26T07:11:20.945Z,29.10
2022-08-26T07:13:47.914Z,28.78
2022-08-26T07:16:17.414Z,29.30
2022-08-26T07:18:45.266Z,29.43
2022-08-26T07:21:15.186Z,29.90
2022-08-26T07:23:41.694Z,29.99
2022-08-26T07:26:12.626Z,29.59
2022-08-26T07:28:39.435Z,29.33
2022-08-26T07:31:09.637Z,28.93
2022-08-26T07:33:38.609Z,29.06
2022-08-26T07:36:07.231Z,29.21
2022-08-26T07:38:34.821Z,29.51
2022-08-26T07:41:01.868Z,29.75
2022-08-26T07:43:29.884Z,29.61
2022-08-26T07:45:56.758Z,30.03
2022-08-26T07:48:23.687Z,30.46
2022-08-26T07:50:52.612Z,30.59
2022-08-26T07:53:21.270Z,31.03
2022-08-26T07:55:49.251Z,31.30
2022-08-26T07:58:17.188Z,31.58
2022-08-26T08:00:43.657Z,32.03
2022-08-26T08:03:12.610Z,32.25
2022-08-26T08:05:41.293Z,32.69
2022-08-26T08:08:27.145Z,32.29
2022-08-26T08:10:56.526Z,32.22
2022-08-26T08:13:24.295Z,30.57
2022-08-26T08:15:50.992Z,30.40
2022-08-26T08:18:20.562Z,30.21
2022-08-26T08:20:59.426Z,29.57
2022-08-26T08:23:32.820Z,29.40
2022-08-26T08:26:08.633Z,29.99
2022-08-26T08:28:36.229Z,30.09
2022-08-26T08:31:02.907Z,29.92
2022-08-26T08:33:33.537Z,29.92
2022-08-26T08:36:00.802Z,29.76
2022-08-26T08:38:28.345Z,29.58
2022-08-26T08:40:54.944Z,29.48
2022-08-26T08:43:41.974Z,29.15
2022-08-26T08:46:15.279Z,28.75
2022-08-26T08:48:51.168Z,28.65
2022-08-26T08:51:39.855Z,28.66
2022-08-26T08:54:08.446Z,28.82
2022-08-26T08:56:37.669Z,28.95
2022-08-26T08:59:20.258Z,29.35
2022-08-26T09:02:05.608Z,29.70
2022-08-26T09:05:15.247Z,29.78
2022-08-26T09:07:50.827Z,29.78
2022-08-26T09:10:24.564Z,29.73
2022-08-26T09:12:52.303Z,29.64
2022-08-26T09:15:36.312Z,29.60
2022-08-26T09:18:11.121Z,30.28
2022-08-26T09:20:56.043Z,30.97
2022-08-26T09:23:22.948Z,31.52
2022-08-26T09:25:55.761Z,31.96
2022-08-26T09:28:24.512Z,32.27
2022-08-26T09:31:36.927Z,32.48
2022-08-26T09:34:22.384Z,32.44
2022-08-26T09:36:51.563Z,32.51
2022-08-26T09:39:24.188Z,32.58
2022-08-26T09:42:11.391Z,32.58
2022-08-26T09:45:06.481Z,32.25
2022-08-26T09:47:38.257Z,31.95
2022-08-26T09:50:18.505Z,31.93
2022-08-26T09:52:45.074Z,31.74
2022-08-26T09:55:15.601Z,31.63
2022-08-26T09:57:54.962Z,31.30
2022-08-26T10:00:30.213Z,31.32
2022-08-26T10:03:02.673Z,30.99
2022-08-26T10:06:01.022Z,30.92
2022-08-26T10:08:38.654Z,30.85
2022-08-26T10:11:18.128Z,30.94
2022-08-26T10:13:51.279Z,30.82
2022-08-26T10:16:23.616Z,31.00
2022-08-26T10:19:17.027Z,30.74
2022-08-26T10:22:01.812Z,30.83
2022-08-26T10:24:35.223Z,31.07
2022-08-26T10:27:24.444Z,31.06
2022-08-26T10:29:57.283Z,31.07
2022-08-26T10:32:31.455Z,30.91
2022-08-26T10:34:58.240Z,30.93
2022-08-26T10:37:41.507Z,31.03
2022-08-26T10:40:20.213Z,31.19
2022-08-26T10:42:58.379Z,31.45
2022-08-26T10:45:27.762Z,31.36
2022-08-26T10:48:05.250Z,31.25
2022-08-26T10:50:40.212Z,31.20
2022-08-26T10:53:37.836Z,31.34
2022-08-26T10:56:22.688Z,31.34
2022-08-26T10:59:21.713Z,31.16
2022-08-26T11:02:03.875Z,31.13
2022-08-26T11:04:49.515Z,31.34
2022-08-26T11:07:38.049Z,31.49
2022-08-26T11:10:16.806Z,31.76
2022-08-26T11:12:45.309Z,31.89
2022-08-26T11:15:24.663Z,31.90
2022-08-26T11:17:51.494Z,31.85
2022-08-26T11:20:31.093Z,31.73
2022-08-26T11:23:23.152Z,31.70
2022-08-26T11:25:56.293Z,31.75
2022-08-26T11:28:48.063Z,31.87
2022-08-26T11:31:27.084Z,31.72
2022-08-26T11:34:02.002Z,31.78
2022-08-26T11:36:37.426Z,31.72
2022-08-26T11:39:31.018Z,31.56
2022-08-26T11:42:14.846Z,31.63
2022-08-26T11:44:49.334Z,31.72
2022-08-26T11:47:24.753Z,31.71
2022-08-26T11:50:06.559Z,31.89
2022-08-26T11:52:33.066Z,32.01
2022-08-26T11:55:11.020Z,31.92
2022-08-26T11:57:47.505Z,32.08
2022-08-26T12:00:33.601Z,32.52
2022-08-26T12:03:05.585Z,32.53
2022-08-26T12:05:37.441Z,32.60
2022-08-26T12:08:13.250Z,32.66
2022-08-26T12:10:40.260Z,32.94
2022-08-26T12:13:07.964Z,33.11
2022-08-26T12:15:35.673Z,33.19
2022-08-26T12:18:20.688Z,32.69
2022-08-26T12:20:58.346Z,32.73
2022-08-26T12:23:35.270Z,32.63
2022-08-26T12:26:10.962Z,32.32
2022-08-26T12:28:47.037Z,32.10
2022-08-26T12:31:21.164Z,31.73
2022-08-26T12:33:48.799Z,31.39
2022-08-26T12:36:21.602Z,31.22
2022-08-26T12:38:48.618Z,30.96
2022-08-26T12:41:41.518Z,30.69
2022-08-26T12:44:08.030Z,30.53
2022-08-26T12:46:34.866Z,30.50
2022-08-26T12:49:01.789Z,30.39
2022-08-26T12:51:32.050Z,30.37
2022-08-26T12:53:59.282Z,30.29
2022-08-26T12:56:39.553Z,30.12
2022-08-26T12:59:20.961Z,30.18
2022-08-26T13:01:49.372Z,30.32
2022-08-26T13:04:40.507Z,30.40
2022-08-26T13:07:24.168Z,30.56
2022-08-26T13:09:53.735Z,30.57
2022-08-26T13:12:53.168Z,30.70
2022-08-26T13:15:19.629Z,30.86
2022-08-26T13:17:46.112Z,30.92
2022-08-26T13:20:12.569Z,31.01
2022-08-26T13:25:06.029Z,30.72
2022-08-26T13:27:32.709Z,30.69
2022-08-26T13:29:59.790Z,30.63
2022-08-26T13:32:27.485Z,30.67
2022-08-26T13:34:56.295Z,30.41
2022-08-26T13:37:24.502Z,30.32
2022-08-26T13:40:01.624Z,30.34
2022-08-26T13:42:28.308Z,30.48
2022-08-26T13:44:58.001Z,30.54
2022-08-26T13:47:25.948Z,30.45
2022-08-26T13:49:54.386Z,30.13
2022-08-26T13:52:27.294Z,29.90
2022-08-26T13:55:00.058Z,29.72
2022-08-26T13:57:28.330Z,29.27
2022-08-26T13:59:56.470Z,28.97
2022-08-26T14:02:23.028Z,28.80
2022-08-26T14:04:49.530Z,28.50
2022-08-26T14:07:16.101Z,28.30
2022-08-26T14:09:42.545Z,27.95
2022-08-26T14:12:09.035Z,27.66
2022-08-26T14:14:35.533Z,27.37
2022-08-26T14:17:02.249Z,27.15
2022-08-26T14:19:30.037Z,26.83
2022-08-26T14:21:57.244Z,26.62
2022-08-26T14:24:23.702Z,26.41
2022-08-26T14:26:50.122Z,26.25
2022-08-26T14:29:16.914Z,26.09
2022-08-26T14:31:44.025Z,25.74
2022-08-26T14:34:12.511Z,25.46
2022-08-26T14:36:39.013Z,25.20
2022-08-26T14:39:08.719Z,24.96
2022-08-26T14:41:53.819Z,24.80
2022-08-26T14:44:24.485Z,24.57
2022-08-26T14:46:53.091Z,24.51
2022-08-26T14:49:21.257Z,24.38
2022-08-26T14:51:48.245Z,24.28
2022-08-26T14:54:16.418Z,24.23
2022-08-26T14:56:51.941Z,24.17
2022-08-26T14:59:33.839Z,23.97
2022-08-26T15:02:00.799Z,23.92
2022-08-26T15:04:27.974Z,23.89
2022-08-26T15:06:56.125Z,23.84
2022-08-26T15:09:23.587Z,23.83
2022-08-26T15:11:50.642Z,23.81
2022-08-26T15:14:19.113Z,23.68
2022-08-26T15:16:48.438Z,23.64
2022-08-26T15:19:15.924Z,23.63
2022-08-26T15:21:43.330Z,23.64
2022-08-26T15:24:09.870Z,23.61
2022-08-26T15:26:36.355Z,23.53
2022-08-26T15:29:05.141Z,23.56
2022-08-26T15:31:32.562Z,23.56
2022-08-26T15:34:03.107Z,23.61
2022-08-26T15:36:31.151Z,23.56
2022-08-26T15:38:59.497Z,23.62
2022-08-26T15:41:27.393Z,23.59
2022-08-26T15:43:53.818Z,23.50
2022-08-26T15:46:20.314Z,23.47
2022-08-26T15:48:47.200Z,23.37
2022-08-26T15:51:27.087Z,23.22
2022-08-26T15:53:56.238Z,23.09
2022-08-26T15:56:27.659Z,22.95
2022-08-26T15:58:56.328Z,22.76
2022-08-26T16:01:27.352Z,22.74
2022-08-26T16:03:55.713Z,22.48
2022-08-26T16:06:24.070Z,22.30
2022-08-26T16:08:50.625Z,22.22
2022-08-26T16:11:19.770Z,22.06
2022-08-26T16:13:46.845Z,21.91
2022-08-26T16:16:13.726Z,21.80
2022-08-26T16:18:40.757Z,21.66
2022-08-26T16:21:13.507Z,21.62
2022-08-26T16:23:43.200Z,21.56
2022-08-26T16:26:25.986Z,21.50
2022-08-26T16:28:53.632Z,21.50
2022-08-26T16:31:21.496Z,21.25
2022-08-26T16:33:47.924Z,21.23
2022-08-26T16:36:15.094Z,21.13
2022-08-26T16:38:45.989Z,21.03
2022-08-26T16:41:12.402Z,20.89
2022-08-26T16:43:38.820Z,20.87
2022-08-26T16:46:06.945Z,20.90
2022-08-26T16:48:34.243Z,20.86
2022-08-26T16:51:00.784Z,20.74
2022-08-26T16:53:27.313Z,20.77
2022-08-26T16:55:53.930Z,20.67
2022-08-26T16:58:22.145Z,20.67
2022-08-26T17:00:49.170Z,20.60
2022-08-26T17:03:15.854Z,20.57
2022-08-26T17:05:42.313Z,20.60
2022-08-26T17:08:08.917Z,20.46
2022-08-26T17:10:35.449Z,20.42
2022-08-26T17:13:01.930Z,20.42
2022-08-26T17:15:28.523Z,20.37
2022-08-26T17:17:56.066Z,20.32
2022-08-26T17:20:24.441Z,20.22
2022-08-26T17:22:53.182Z,20.26
2022-08-26T17:25:23.942Z,20.37
2022-08-26T17:27:50.804Z,20.37
2022-08-26T17:30:17.862Z,20.33
2022-08-26T17:32:44.975Z,20.24
2022-08-26T17:35:13.106Z,20.21
2022-08-26T17:37:40.227Z,20.27
2022-08-26T17:40:12.105Z,20.30
2022-08-26T17:42:39.473Z,20.28
2022-08-26T17:45:07.472Z,20.30
2022-08-26T17:47:34.494Z,20.36
2022-08-26T17:50:01.620Z,20.42
2022-08-26T17:52:28.991Z,20.42
2022-08-26T17:54:59.052Z,20.35
2022-08-26T17:57:25.823Z,20.30
2022-08-26T17:59:53.497Z,20.31
2022-08-26T18:02:21.033Z,20.32
2022-08-26T18:04:47.679Z,20.33
2022-08-26T18:07:15.177Z,20.33
2022-08-26T18:09:41.842Z,20.28
2022-08-26T18:12:08.639Z,20.25
2022-08-26T18:14:35.429Z,20.26
2022-08-26T18:17:02.303Z,20.22
2022-08-26T18:19:29.766Z,20.26
2022-08-26T18:21:56.783Z,20.25
2022-08-26T18:24:24.492Z,20.23
2022-08-26T18:26:51.109Z,20.22
2022-08-26T18:29:19.546Z,20.21
2022-08-26T18:31:46.600Z,20.18
2022-08-26T18:34:15.352Z,20.18
2022-08-26T18:36:43.000Z,20.14
2022-08-26T18:39:11.782Z,20.09
2022-08-26T18:41:42.533Z,20.03
2022-08-26T18:44:13.443Z,20.04
2022-08-26T18:46:40.717Z,20.02
2022-08-26T18:49:08.298Z,20.00
2022-08-26T18:51:35.587Z,19.93
2022-08-26T18:54:05.499Z,19.90
2022-08-26T18:56:33.632Z,19.87
2022-08-26T18:59:00.482Z,19.87
2022-08-26T19:01:29.032Z,19.90
2022-08-26T19:03:59.366Z,19.90
2022-08-26T19:06:28.252Z,19.93
2022-08-26T19:08:54.963Z,19.94
2022-08-26T19:11:32.409Z,19.91
2022-08-26T19:14:06.532Z,19.94
2022-08-26T19:16:33.520Z,19.96
2022-08-26T19:19:01.808Z,19.99
2022-08-26T19:21:29.728Z,19.97
2022-08-26T19:23:58.723Z,19.93
2022-08-26T19:26:25.987Z,19.94
2022-08-26T19:28:52.937Z,19.95
2022-08-26T19:31:19.915Z,19.91
2022-08-26T19:33:46.662Z,19.88
2022-08-26T19:36:17.889Z,19.86
2022-08-26T19:38:45.764Z,19.85
2022-08-26T19:41:34.098Z,19.82
2022-08-26T19:44:08.006Z,19.71
2022-08-26T19:46:35.949Z,19.70
2022-08-26T19:49:02.934Z,19.69
2022-08-26T19:51:31.911Z,19.69
2022-08-26T19:54:00.570Z,19.69
2022-08-26T19:56:28.293Z,19.63
2022-08-26T19:58:55.674Z,19.61
2022-08-26T20:01:23.081Z,19.58
2022-08-26T20:03:49.958Z,19.55
2022-08-26T20:06:17.111Z,19.53
2022-08-26T20:08:44.246Z,19.52
2022-08-26T20:11:15.174Z,19.49
2022-08-26T20:13:42.288Z,19.51
2022-08-26T20:16:10.529Z,19.52
2022-08-26T20:18:55.708Z,19.53
2022-08-26T20:21:28.293Z,19.52
2022-08-26T20:23:58.326Z,19.50
2022-08-26T20:26:27.066Z,19.49
2022-08-26T20:28:54.011Z,19.50
2022-08-26T20:31:21.015Z,19.50
2022-08-26T20:33:48.186Z,19.49
2022-08-26T20:36:15.562Z,19.53
2022-08-26T20:38:42.216Z,19.48
2022-08-26T20:41:08.773Z,19.53
2022-08-26T20:43:35.217Z,19.58
2022-08-26T20:46:01.859Z,19.54
2022-08-26T20:48:28.430Z,19.50
2022-08-26T20:51:01.760Z,19.45
2022-08-26T20:53:29.047Z,19.45
2022-08-26T20:56:00.427Z,19.36
2022-08-26T20:58:27.403Z,19.28
2022-08-26T21:00:54.148Z,19.23
2022-08-26T21:03:20.839Z,19.27
2022-08-26T21:05:47.461Z,19.27
2022-08-26T21:08:13.900Z,19.28
2022-08-26T21:10:40.538Z,19.32
2022-08-26T21:13:07.712Z,19.36
2022-08-26T21:15:35.153Z,19.31
2022-08-26T21:18:01.714Z,19.28
2022-08-26T21:20:28.181Z,19.32
2022-08-26T21:22:54.643Z,19.31
2022-08-26T21:25:21.339Z,19.31
2022-08-26T21:27:47.884Z,19.34
2022-08-26T21:30:16.113Z,19.32
2022-08-26T21:32:42.858Z,19.32
2022-08-26T21:35:10.393Z,19.35
2022-08-26T21:37:36.947Z,19.35
2022-08-26T21:40:05.184Z,19.37
2022-08-26T21:42:34.407Z,19.38
2022-08-26T21:45:01.839Z,19.37
2022-08-26T21:47:28.590Z,19.38
2022-08-26T21:49:55.067Z,19.36
2022-08-26T21:52:21.692Z,19.36
2022-08-26T21:54:50.714Z,19.35
2022-08-26T21:57:18.390Z,19.35
2022-08-26T21:59:44.850Z,19.35
2022-08-26T22:02:11.362Z,19.34
2022-08-26T22:04:37.886Z,19.34
2022-08-26T22:07:04.981Z,19.31
2022-08-26T22:09:31.771Z,19.27
2022-08-26T22:11:58.824Z,19.24
2022-08-26T22:14:30.489Z,19.21
2022-08-26T22:16:58.682Z,19.18
2022-08-26T22:19:25.770Z,19.17
2022-08-26T22:21:54.258Z,19.18
2022-08-26T22:24:23.353Z,19.12
2022-08-26T22:26:50.344Z,19.11
2022-08-26T22:29:18.766Z,19.07
2022-08-26T22:31:45.893Z,19.02
2022-08-26T22:34:15.718Z,18.96
2022-08-26T22:36:45.114Z,18.94
2022-08-26T22:39:25.733Z,18.95
2022-08-26T22:41:53.869Z,18.92
2022-08-26T22:44:22.115Z,18.87
2022-08-26T22:46:50.009Z,18.84
2022-08-26T22:49:17.365Z,18.81
2022-08-26T22:51:45.331Z,18.83
2022-08-26T22:54:11.836Z,18.80
2022-08-26T22:56:39.595Z,18.77
2022-08-26T22:59:07.799Z,18.79
2022-08-26T23:01:38.948Z,18.78
2022-08-26T23:04:07.137Z,18.78
2022-08-26T23:06:38.528Z,18.76
2022-08-26T23:09:06.223Z,18.71
2022-08-26T23:11:33.614Z,18.67
2022-08-26T23:14:06.420Z,18.66
2022-08-26T23:16:39.601Z,18.67
2022-08-26T23:19:07.171Z,18.65
2022-08-26T23:21:33.785Z,18.64
2022-08-26T23:24:01.100Z,18.65
2022-08-26T23:26:28.250Z,18.66
2022-08-26T23:28:55.144Z,18.65
2022-08-26T23:31:21.651Z,18.65
2022-08-26T23:34:06.773Z,18.66
2022-08-26T23:36:34.959Z,18.64
2022-08-26T23:39:02.189Z,18.61
2022-08-26T23:41:28.652Z,18.62
2022-08-26T23:43:55.185Z,18.64
2022-08-26T23:46:21.649Z,18.64
2022-08-26T23:48:48.397Z,18.66
2022-08-26T23:51:33.540Z,18.69
2022-08-26T23:54:00.078Z,18.71
2022-08-26T23:56:26.846Z,18.75
2022-08-26T23:58:54.199Z,18.74
